Time;durP1;ratioP1;P1;durP2;ratioP2;P2;SDS_P1;SDS_P2;PMS_P1;PMS_P2;Temp;Humidity;BMP_temperature;BMP_pressure;BME280_temperature;BME280_humidity;BME280_pressure;Samples;Min_cycle;Max_cycle;Signal;HPM_P1;HPM_P2
2023/06/14 00:00:52;;;;;;;2.33;0.90;;;17.90;53.80;;;;;;5032471;28;20051;-75
2023/06/14 00:03:21;;;;;;;2.50;0.93;;;17.80;53.90;;;;;;5050492;28;20037;-75
2023/06/14 00:05:48;;;;;;;2.75;0.90;;;17.80;54.00;;;;;;5032390;28;20490;-75
2023/06/14 00:08:14;;;;;;;1.63;0.70;;;17.80;54.30;;;;;;5016316;28;20483;-75
2023/06/14 00:10:41;;;;;;;1.65;0.68;;;17.70;54.40;;;;;;5032805;28;20152;-74
2023/06/14 00:13:08;;;;;;;1.63;0.75;;;17.70;54.40;;;;;;5016448;28;20429;-74
2023/06/14 00:15:35;;;;;;;1.63;0.88;;;17.70;54.70;;;;;;5032279;28;20076;-74
2023/06/14 00:18:01;;;;;;;1.38;0.63;;;17.70;55.00;;;;;;5032445;28;20034;-74
2023/06/14 00:20:32;;;;;;;1.52;0.68;;;17.70;54.90;;;;;;5032220;28;20114;-75
2023/06/14 00:22:59;;;;;;;6.80;0.90;;;17.70;55.00;;;;;;5032612;28;20131;-75
2023/06/14 00:25:25;;;;;;;2.63;0.70;;;17.60;55.00;;;;;;5015740;28;20517;-74
2023/06/14 00:27:52;;;;;;;2.13;0.77;;;17.60;55.10;;;;;;5032329;28;20037;-75
2023/06/14 00:30:17;;;;;;;2.30;1.00;;;17.60;55.40;;;;;;5015734;28;20402;-75
2023/06/14 00:32:47;;;;;;;1.85;0.77;;;17.60;55.50;;;;;;5032553;28;20120;-75
2023/06/14 00:35:13;;;;;;;2.15;0.90;;;17.50;55.50;;;;;;5032516;28;20502;-75
2023/06/14 00:37:39;;;;;;;1.98;0.80;;;17.50;55.80;;;;;;5032097;28;20039;-75
2023/06/14 00:40:06;;;;;;;2.65;0.95;;;17.40;55.80;;;;;;5032417;28;20123;-74
2023/06/14 00:42:32;;;;;;;4.57;0.90;;;17.40;56.00;;;;;;5032171;28;20052;-74
2023/06/14 00:44:58;;;;;;;2.42;0.90;;;17.40;56.20;;;;;;5032293;28;20036;-74
2023/06/14 00:47:24;;;;;;;2.50;0.75;;;17.40;56.20;;;;;;5032021;28;20066;-75
2023/06/14 00:49:52;;;;;;;2.03;0.80;;;17.30;56.40;;;;;;5032033;28;20045;-75
2023/06/14 00:52:18;;;;;;;3.65;1.00;;;17.30;56.60;;;;;;5032389;28;20037;-74
2023/06/14 00:54:44;;;;;;;4.18;0.90;;;17.30;56.70;;;;;;5032390;28;20044;-74
2023/06/14 00:57:11;;;;;;;1.63;0.68;;;17.30;56.90;;;;;;5032403;28;20461;-75
2023/06/14 00:59:44;;;;;;;2.80;0.90;;;17.20;57.20;;;;;;5034645;28;20060;-75
2023/06/14 01:02:11;;;;;;;2.38;0.80;;;17.20;57.30;;;;;;5019587;28;20099;-75
2023/06/14 01:04:40;;;;;;;1.90;0.93;;;17.10;57.30;;;;;;5035727;28;20053;-75
2023/06/14 01:07:18;;;;;;;1.95;0.65;;;17.10;58.20;;;;;;5036279;28;20095;-75
2023/06/14 01:09:51;;;;;;;1.95;1.00;;;17.10;58.40;;;;;;5035714;28;20037;-75
2023/06/14 01:12:54;;;;;;;4.47;0.75;;;17.10;58.20;;;;;;5019579;28;20056;-74
2023/06/14 01:15:21;;;;;;;1.67;0.65;;;17.00;59.10;;;;;;5035728;28;20045;-74
2023/06/14 01:17:51;;;;;;;2.15;0.90;;;17.00;58.40;;;;;;5019012;28;20041;-75
2023/06/14 01:20:19;;;;;;;5.45;0.93;;;17.00;58.60;;;;;;5019270;28;20136;-75
2023/06/14 01:22:53;;;;;;;1.13;0.60;;;16.90;58.70;;;;;;5035641;28;20051;-74
2023/06/14 01:25:26;;;;;;;3.33;0.90;;;16.90;59.30;;;;;;5031918;28;20264;-75
2023/06/14 01:28:10;;;;;;;2.45;0.60;;;16.80;59.10;;;;;;5015862;28;20037;-75
2023/06/14 01:30:37;;;;;;;3.15;0.90;;;16.80;59.70;;;;;;5032260;28;20579;-75
2023/06/14 01:33:04;;;;;;;2.78;1.00;;;16.80;59.50;;;;;;5032042;28;20041;-75
2023/06/14 01:35:30;;;;;;;2.08;1.00;;;16.70;60.40;;;;;;5015248;28;20052;-75
2023/06/14 01:37:56;;;;;;;4.28;1.10;;;16.70;59.90;;;;;;5032086;28;20045;-75
2023/06/14 01:40:23;;;;;;;2.10;0.95;;;16.70;60.10;;;;;;5015661;28;20125;-75
2023/06/14 01:42:50;;;;;;;2.90;0.73;;;16.70;60.50;;;;;;5031827;28;20041;-74
2023/06/14 01:45:17;;;;;;;2.50;0.82;;;16.70;60.60;;;;;;5031890;28;20046;-75
2023/06/14 01:47:44;;;;;;;3.30;0.80;;;16.60;60.70;;;;;;5015365;28;20080;-75
2023/06/14 01:50:10;;;;;;;1.35;0.68;;;16.60;61.00;;;;;;5031557;28;20111;-75
2023/06/14 01:52:36;;;;;;;2.65;0.68;;;16.60;61.20;;;;;;5031562;28;20049;-75
2023/06/14 01:55:02;;;;;;;2.67;0.88;;;16.60;61.60;;;;;;5031725;28;20044;-75
2023/06/14 01:57:29;;;;;;;1.52;0.73;;;16.50;61.80;;;;;;5015184;28;20151;-75
2023/06/14 01:59:54;;;;;;;1.50;0.70;;;16.50;62.00;;;;;;5031465;28;20487;-75
2023/06/14 02:02:20;;;;;;;3.97;1.10;;;16.50;62.30;;;;;;5031678;28;20033;-75
2023/06/14 02:04:47;;;;;;;1.75;0.70;;;16.40;62.60;;;;;;5031511;28;20084;-75
2023/06/14 02:07:13;;;;;;;3.10;0.82;;;16.40;62.80;;;;;;5015118;28;20041;-75
2023/06/14 02:09:38;;;;;;;1.00;0.60;;;16.40;63.20;;;;;;5014959;28;20040;-75
2023/06/14 02:12:04;;;;;;;1.67;0.73;;;16.30;63.40;;;;;;5031340;28;20033;-75
2023/06/14 02:14:30;;;;;;;2.78;0.73;;;16.40;63.80;;;;;;5031615;28;20376;-74
2023/06/14 02:16:56;;;;;;;2.53;0.90;;;16.30;64.00;;;;;;5031473;28;20093;-74
2023/06/14 02:19:21;;;;;;;2.03;0.90;;;16.30;64.30;;;;;;5031151;28;20053;-74
2023/06/14 02:21:47;;;;;;;1.70;0.80;;;16.20;64.60;;;;;;5014717;28;20108;-74
2023/06/14 02:24:13;;;;;;;4.47;1.08;;;16.20;65.10;;;;;;5031035;28;20509;-74
2023/06/14 02:26:39;;;;;;;2.03;0.70;;;16.20;65.40;;;;;;5031069;28;20049;-74
2023/06/14 02:29:12;;;;;;;2.90;1.00;;;16.10;65.80;;;;;;5031363;28;20056;-75
2023/06/14 02:31:38;;;;;;;3.75;1.00;;;16.00;66.30;;;;;;5030775;28;20564;-74
2023/06/14 02:34:04;;;;;;;2.10;0.90;;;15.90;66.80;;;;;;5014355;28;20092;-75
2023/06/14 02:36:30;;;;;;;1.80;0.65;;;15.90;67.30;;;;;;5031096;28;20198;-75
2023/06/14 02:38:57;;;;;;;4.25;0.90;;;15.90;67.80;;;;;;5030700;28;20058;-75
2023/06/14 02:41:25;;;;;;;2.78;1.00;;;16.00;68.20;;;;;;5014458;28;20115;-74
2023/06/14 02:43:51;;;;;;;2.25;1.23;;;15.90;68.30;;;;;;5014344;28;20499;-75
2023/06/14 02:46:17;;;;;;;1.75;0.82;;;16.00;68.70;;;;;;5030939;28;20119;-75
2023/06/14 02:48:43;;;;;;;4.75;1.00;;;16.00;68.70;;;;;;5030804;28;20041;-75
2023/06/14 02:51:09;;;;;;;1.52;0.70;;;15.90;69.10;;;;;;5030550;28;20164;-76
2023/06/14 02:53:36;;;;;;;1.70;0.90;;;16.00;69.30;;;;;;5030466;28;20049;-74
2023/06/14 02:56:03;;;;;;;1.48;0.63;;;15.90;69.50;;;;;;5030398;28;20284;-74
2023/06/14 02:58:29;;;;;;;1.80;0.73;;;15.90;70.10;;;;;;5013998;28;20084;-74
2023/06/14 03:00:55;;;;;;;2.30;0.93;;;15.90;70.40;;;;;;5030027;28;20041;-75
2023/06/14 03:03:21;;;;;;;2.77;0.90;;;15.80;70.80;;;;;;5013990;28;20048;-74
2023/06/14 03:05:49;;;;;;;1.95;0.70;;;15.90;71.20;;;;;;5013645;28;20038;-74
2023/06/14 03:08:19;;;;;;;2.10;0.88;;;15.80;71.40;;;;;;5013949;28;20045;-74
2023/06/14 03:10:47;;;;;;;1.90;0.88;;;15.80;71.70;;;;;;5030257;28;20079;-75
2023/06/14 03:13:15;;;;;;;2.75;0.85;;;15.80;71.90;;;;;;5030293;28;20037;-74
2023/06/14 03:15:42;;;;;;;3.95;0.85;;;15.80;72.30;;;;;;5013909;28;20101;-74
2023/06/14 03:18:11;;;;;;;3.13;0.63;;;15.80;72.50;;;;;;5030237;28;20033;-75
2023/06/14 03:20:38;;;;;;;2.10;1.02;;;15.80;73.00;;;;;;5029712;28;20052;-75
2023/06/14 03:23:04;;;;;;;2.83;0.80;;;15.80;73.30;;;;;;5013093;28;20037;-75
2023/06/14 03:25:31;;;;;;;1.88;1.08;;;15.70;73.70;;;;;;5029858;28;20057;-74
2023/06/14 03:27:57;;;;;;;2.83;0.90;;;15.80;74.10;;;;;;5029514;28;20091;-74
2023/06/14 03:30:23;;;;;;;2.58;0.90;;;15.80;74.40;;;;;;5030079;28;20080;-74
2023/06/14 03:32:50;;;;;;;2.47;0.88;;;15.80;74.60;;;;;;5013067;28;20038;-75
2023/06/14 03:35:17;;;;;;;1.73;0.82;;;15.70;74.80;;;;;;5029556;28;20088;-75
2023/06/14 03:37:46;;;;;;;2.05;0.88;;;15.80;75.10;;;;;;5030118;28;20072;-75
2023/06/14 03:40:13;;;;;;;3.00;1.13;;;15.80;75.50;;;;;;5029981;28;20085;-75
2023/06/14 03:42:40;;;;;;;1.63;0.88;;;15.70;75.60;;;;;;5029207;28;20088;-74
2023/06/14 03:45:06;;;;;;;2.75;0.77;;;15.80;76.10;;;;;;5013193;28;20107;-75
2023/06/14 03:47:32;;;;;;;3.40;0.90;;;15.80;76.40;;;;;;5012844;28;20546;-75
2023/06/14 03:49:58;;;;;;;1.38;1.00;;;15.80;76.70;;;;;;5029705;28;20103;-74
2023/06/14 03:52:24;;;;;;;3.63;0.70;;;15.80;77.00;;;;;;5029405;28;20479;-74
2023/06/14 03:54:51;;;;;;;2.15;1.10;;;15.70;77.40;;;;;;5013056;28;20083;-75
2023/06/14 03:57:17;;;;;;;2.78;1.10;;;15.70;77.90;;;;;;5012994;28;20132;-74
2023/06/14 03:59:42;;;;;;;3.03;1.05;;;15.70;78.00;;;;;;5029465;28;20086;-74
2023/06/14 04:02:09;;;;;;;3.63;1.20;;;15.60;78.50;;;;;;5029320;28;20080;-74
2023/06/14 04:04:35;;;;;;;1.60;0.82;;;15.60;79.00;;;;;;5029359;28;20053;-74
2023/06/14 04:07:03;;;;;;;2.10;0.93;;;15.70;79.30;;;;;;5012756;28;20048;-74
2023/06/14 04:09:31;;;;;;;3.30;1.35;;;15.80;79.50;;;;;;5029356;28;20048;-75
2023/06/14 04:11:57;;;;;;;2.08;1.00;;;15.70;79.70;;;;;;5028955;28;20045;-75
2023/06/14 04:14:23;;;;;;;3.15;1.00;;;15.80;79.90;;;;;;5029619;28;20476;-74
2023/06/14 04:16:49;;;;;;;2.85;1.48;;;15.80;80.20;;;;;;5029207;28;20128;-74
2023/06/14 04:19:16;;;;;;;2.70;0.93;;;15.80;80.40;;;;;;5029459;28;20041;-75
2023/06/14 04:21:42;;;;;;;3.40;1.13;;;15.90;80.40;;;;;;5029344;28;20139;-75
2023/06/14 04:24:12;;;;;;;3.05;1.10;;;15.90;80.50;;;;;;5012273;28;20053;-74
2023/06/14 04:26:40;;;;;;;2.67;0.93;;;15.90;80.90;;;;;;5029085;28;20073;-75
2023/06/14 04:29:06;;;;;;;2.72;1.05;;;15.90;81.00;;;;;;5029140;28;20235;-75
2023/06/14 04:31:37;;;;;;;1.42;0.75;;;16.00;81.40;;;;;;5029238;28;20124;-75
2023/06/14 04:34:05;;;;;;;3.03;1.00;;;16.00;81.50;;;;;;5031303;28;20714;-75
2023/06/14 04:36:36;;;;;;;2.53;1.20;;;16.00;81.60;;;;;;5016459;28;20080;-75
2023/06/14 04:39:03;;;;;;;2.65;1.13;;;16.00;81.70;;;;;;5033119;28;20128;-74
2023/06/14 04:41:30;;;;;;;5.28;1.70;;;16.00;81.90;;;;;;5033009;28;20037;-75
2023/06/14 04:44:01;;;;;;;1.88;1.00;;;16.00;81.90;;;;;;5016195;28;20423;-74
2023/06/14 04:46:28;;;;;;;1.90;0.82;;;16.00;82.10;;;;;;5016657;28;20589;-75
2023/06/14 04:48:54;;;;;;;2.90;1.08;;;16.00;82.50;;;;;;5032924;28;20044;-75
2023/06/14 04:51:29;;;;;;;5.38;1.38;;;16.00;82.90;;;;;;5032663;28;20041;-75
2023/06/14 04:53:57;;;;;;;4.23;1.03;;;16.10;83.20;;;;;;5016387;28;20096;-75
2023/06/14 04:56:26;;;;;;;2.92;1.27;;;16.10;83.40;;;;;;5032726;28;20284;-74
2023/06/14 04:58:53;;;;;;;2.65;1.27;;;16.10;83.60;;;;;;5033218;28;20123;-75
2023/06/14 05:01:20;;;;;;;3.08;1.13;;;16.10;83.70;;;;;;5016175;28;20091;-75
2023/06/14 05:03:48;;;;;;;3.13;0.93;;;16.20;83.90;;;;;;5032273;28;20041;-75
2023/06/14 05:06:14;;;;;;;2.22;1.13;;;16.20;84.10;;;;;;5032960;28;20502;-75
2023/06/14 05:08:40;;;;;;;1.98;1.10;;;16.10;84.10;;;;;;5032409;28;20040;-75
2023/06/14 05:11:05;;;;;;;5.80;1.30;;;16.20;84.30;;;;;;5032388;28;20461;-74
2023/06/14 05:13:32;;;;;;;3.78;1.60;;;16.20;84.50;;;;;;5032320;28;20052;-75
2023/06/14 05:15:59;;;;;;;3.85;1.27;;;16.20;84.80;;;;;;5016202;28;20395;-74
2023/06/14 05:18:25;;;;;;;4.95;1.73;;;16.20;84.80;;;;;;5032128;28;20041;-75
2023/06/14 05:20:51;;;;;;;3.35;1.52;;;16.30;85.00;;;;;;5015755;28;20216;-75
2023/06/14 05:23:16;;;;;;;2.92;1.30;;;16.30;85.40;;;;;;5032008;28;20165;-75
2023/06/14 05:25:46;;;;;;;2.92;1.58;;;16.30;85.40;;;;;;5032287;28;20054;-75
2023/06/14 05:28:12;;;;;;;3.90;1.38;;;16.30;85.50;;;;;;5032369;28;20033;-75
2023/06/14 05:30:39;;;;;;;3.72;1.90;;;16.30;85.40;;;;;;5032232;28;20144;-75
2023/06/14 05:33:05;;;;;;;3.67;1.20;;;16.30;85.70;;;;;;5015593;28;20053;-75
2023/06/14 05:35:31;;;;;;;5.32;1.42;;;16.30;85.60;;;;;;5015836;28;20479;-75
2023/06/14 05:37:56;;;;;;;2.70;1.30;;;16.40;85.60;;;;;;5031961;28;20095;-74
2023/06/14 05:40:22;;;;;;;3.22;1.20;;;16.40;85.40;;;;;;5032143;28;20037;-75
2023/06/14 05:42:47;;;;;;;3.15;1.25;;;16.40;85.40;;;;;;5015271;28;20458;-75
2023/06/14 05:45:15;;;;;;;2.80;1.25;;;16.40;85.60;;;;;;5031391;28;20043;-75
2023/06/14 05:47:41;;;;;;;4.30;1.55;;;16.40;85.30;;;;;;5031853;28;20034;-75
2023/06/14 05:50:07;;;;;;;3.88;1.30;;;16.50;85.30;;;;;;5015350;28;20087;-75
2023/06/14 05:52:34;;;;;;;5.80;1.42;;;16.50;85.40;;;;;;5031955;28;20091;-75
2023/06/14 05:55:00;;;;;;;2.45;1.08;;;16.50;85.50;;;;;;5031772;28;20482;-74
2023/06/14 05:57:26;;;;;;;3.05;1.33;;;16.60;85.40;;;;;;5015154;28;20132;-74
2023/06/14 05:59:51;;;;;;;3.35;1.60;;;16.60;85.50;;;;;;5031444;28;20080;-74
2023/06/14 06:02:17;;;;;;;3.70;1.48;;;16.70;85.50;;;;;;5014917;28;20045;-74
2023/06/14 06:04:42;;;;;;;5.75;1.40;;;16.60;85.60;;;;;;5015094;28;20179;-75
2023/06/14 06:07:08;;;;;;;1.73;0.95;;;16.70;85.40;;;;;;5014935;28;20040;-74
2023/06/14 06:09:34;;;;;;;5.03;1.83;;;16.70;85.50;;;;;;5031350;28;20038;-74
2023/06/14 06:11:59;;;;;;;2.58;1.33;;;16.70;85.80;;;;;;5031376;28;20033;-74
2023/06/14 06:14:25;;;;;;;5.88;1.52;;;16.70;85.40;;;;;;5031195;28;20132;-74
2023/06/14 06:16:52;;;;;;;3.25;1.50;;;16.80;85.40;;;;;;5030975;28;20122;-74
2023/06/14 06:19:18;;;;;;;6.05;1.73;;;16.80;85.30;;;;;;5031403;28;20037;-74
2023/06/14 06:21:44;;;;;;;2.78;1.20;;;16.90;85.10;;;;;;5031437;28;20503;-74
2023/06/14 06:24:09;;;;;;;2.63;1.30;;;16.90;85.00;;;;;;5030974;28;20072;-74
2023/06/14 06:26:35;;;;;;;2.58;1.20;;;17.00;84.80;;;;;;5031052;28;20808;-74
2023/06/14 06:29:01;;;;;;;3.08;1.35;;;17.00;84.60;;;;;;5031162;28;20043;-74
2023/06/14 06:31:27;;;;;;;4.50;1.40;;;17.00;84.70;;;;;;5030857;28;20037;-74
2023/06/14 06:33:54;;;;;;;3.28;1.42;;;17.40;84.70;;;;;;5014360;28;20053;-74
2023/06/14 06:36:21;;;;;;;3.60;1.38;;;18.60;81.70;;;;;;5031419;28;20120;-74
2023/06/14 06:38:47;;;;;;;4.43;1.40;;;20.20;76.80;;;;;;5031129;28;20041;-74
2023/06/14 06:41:12;;;;;;;2.65;1.13;;;21.40;71.70;;;;;;5014364;28;20051;-74
2023/06/14 06:43:38;;;;;;;4.32;1.15;;;22.50;66.80;;;;;;5030692;28;20048;-74
2023/06/14 06:46:04;;;;;;;2.50;1.17;;;23.50;64.10;;;;;;5030555;28;20033;-74
2023/06/14 06:48:29;;;;;;;3.75;1.23;;;24.20;61.50;;;;;;5030666;28;20041;-74
2023/06/14 06:50:55;;;;;;;3.97;0.95;;;24.80;59.70;;;;;;5030561;28;20033;-74
2023/06/14 06:53:21;;;;;;;2.67;0.93;;;24.60;59.20;;;;;;5014204;28;20402;-74
2023/06/14 06:55:46;;;;;;;2.90;1.05;;;24.10;60.00;;;;;;5013492;28;20144;-74
2023/06/14 06:58:13;;;;;;;2.40;1.00;;;23.50;60.70;;;;;;5030608;28;20096;-74
2023/06/14 07:00:38;;;;;;;2.05;0.90;;;22.90;61.50;;;;;;5030105;28;20041;-74
2023/06/14 07:03:05;;;;;;;2.03;1.00;;;22.40;62.40;;;;;;5013872;28;20094;-74
2023/06/14 07:05:32;;;;;;;2.22;1.15;;;22.00;62.70;;;;;;5030274;28;20171;-74
2023/06/14 07:07:58;;;;;;;2.97;1.00;;;21.70;63.50;;;;;;5030262;28;20048;-74
2023/06/14 07:10:24;;;;;;;4.55;1.42;;;21.40;64.00;;;;;;5013792;28;20046;-74
2023/06/14 07:12:53;;;;;;;2.80;1.02;;;21.10;63.90;;;;;;5030392;28;20111;-74
2023/06/14 07:15:18;;;;;;;2.20;0.80;;;20.80;64.00;;;;;;5029824;28;20491;-74
2023/06/14 07:17:44;;;;;;;3.50;1.08;;;20.60;64.30;;;;;;5030453;28;20033;-74
2023/06/14 07:20:13;;;;;;;3.80;1.30;;;20.50;64.80;;;;;;5030042;28;20414;-75
2023/06/14 07:22:43;;;;;;;2.13;0.80;;;20.40;65.00;;;;;;5013517;28;20120;-74
2023/06/14 07:25:15;;;;;;;1.80;0.90;;;20.30;64.80;;;;;;5029494;28;20105;-74
2023/06/14 07:27:42;;;;;;;6.63;1.30;;;20.30;64.80;;;;;;5013303;28;20037;-74
2023/06/14 07:30:08;;;;;;;2.08;0.95;;;20.20;65.00;;;;;;5030089;28;20171;-74
2023/06/14 07:32:34;;;;;;;6.18;1.35;;;20.10;64.80;;;;;;5029707;28;20048;-75
2023/06/14 07:35:00;;;;;;;5.78;1.30;;;20.00;64.80;;;;;;5029695;28;20041;-74
2023/06/14 07:37:25;;;;;;;2.20;1.10;;;20.00;65.10;;;;;;5013372;28;20040;-74
2023/06/14 07:39:51;;;;;;;2.03;1.08;;;19.90;65.20;;;;;;5029729;28;20037;-74
2023/06/14 07:42:17;;;;;;;2.13;0.85;;;20.00;65.30;;;;;;5029604;28;20045;-74
2023/06/14 07:44:42;;;;;;;2.28;1.02;;;19.90;65.30;;;;;;5029731;28;20037;-75
2023/06/14 07:47:08;;;;;;;2.92;1.10;;;19.80;65.70;;;;;;5029877;28;20042;-74
2023/06/14 07:49:33;;;;;;;2.10;1.27;;;19.90;64.90;;;;;;5029600;28;20034;-74
2023/06/14 07:51:59;;;;;;;2.40;0.98;;;19.80;65.10;;;;;;5030095;28;20072;-75
2023/06/14 07:54:26;;;;;;;2.70;1.15;;;19.80;64.80;;;;;;5029563;28;20041;-75
2023/06/14 07:56:52;;;;;;;2.67;1.08;;;19.80;64.50;;;;;;5012616;28;20041;-75
2023/06/14 07:59:18;;;;;;;4.63;1.25;;;19.80;64.60;;;;;;5029572;28;20475;-75
2023/06/14 08:01:47;;;;;;;3.70;1.20;;;19.80;64.70;;;;;;5029972;28;20034;-74
2023/06/14 08:04:16;;;;;;;2.60;1.17;;;19.80;64.80;;;;;;5029520;28;20582;-74
2023/06/14 08:06:45;;;;;;;2.33;1.20;;;19.70;64.50;;;;;;5029387;28;20033;-74
2023/06/14 08:09:12;;;;;;;2.28;1.00;;;19.80;64.70;;;;;;5012886;28;20044;-74
2023/06/14 08:11:38;;;;;;;1.95;1.00;;;19.80;64.80;;;;;;5029107;28;20047;-74
2023/06/14 08:14:06;;;;;;;1.50;0.80;;;19.80;64.60;;;;;;5030520;28;20041;-75
2023/06/14 08:16:32;;;;;;;2.15;1.08;;;19.90;64.50;;;;;;5012707;28;20164;-75
2023/06/14 08:18:57;;;;;;;1.42;0.73;;;19.90;64.60;;;;;;5029123;28;20037;-74
2023/06/14 08:21:23;;;;;;;3.28;0.80;;;19.90;64.20;;;;;;5029334;28;20037;-74
2023/06/14 08:23:52;;;;;;;2.25;1.10;;;19.90;64.00;;;;;;5030660;28;20045;-74
2023/06/14 08:26:18;;;;;;;1.63;0.82;;;20.00;63.80;;;;;;5032370;28;20495;-75
2023/06/14 08:28:44;;;;;;;1.42;0.60;;;20.00;63.80;;;;;;5015925;28;20043;-75
2023/06/14 08:31:09;;;;;;;0.70;0.50;;;20.00;63.60;;;;;;5016126;28;20087;-75
2023/06/14 08:33:35;;;;;;;3.85;0.90;;;20.10;63.20;;;;;;5016027;28;20037;-75
2023/06/14 08:36:01;;;;;;;2.67;1.05;;;20.10;62.90;;;;;;5032327;28;20037;-75
2023/06/14 08:38:26;;;;;;;2.83;0.90;;;20.10;62.40;;;;;;5015923;28;20036;-75
2023/06/14 08:40:56;;;;;;;3.10;1.00;;;20.10;62.00;;;;;;5015849;28;20110;-75
2023/06/14 08:43:22;;;;;;;2.85;1.20;;;20.10;62.70;;;;;;5032282;28;20044;-75
2023/06/14 08:45:49;;;;;;;1.83;0.90;;;20.20;61.90;;;;;;5032050;28;20398;-75
2023/06/14 08:48:17;;;;;;;6.88;1.00;;;20.20;61.40;;;;;;5016360;28;20445;-76
2023/06/14 08:50:45;;;;;;;2.45;0.73;;;20.30;61.20;;;;;;5032325;28;20045;-76
2023/06/14 08:53:19;;;;;;;2.28;1.10;;;20.20;61.20;;;;;;5015737;28;20045;-75
2023/06/14 08:55:45;;;;;;;2.15;0.90;;;20.20;60.90;;;;;;5016072;28;20037;-75
2023/06/14 08:58:14;;;;;;;2.75;0.80;;;20.20;61.10;;;;;;5032745;28;20067;-75
2023/06/14 09:00:42;;;;;;;4.32;1.30;;;20.20;61.10;;;;;;5032455;28;20045;-75
2023/06/14 09:03:13;;;;;;;3.20;1.05;;;20.30;61.40;;;;;;5032374;28;20123;-75
2023/06/14 09:05:39;;;;;;;3.17;1.10;;;20.30;61.00;;;;;;5031786;28;20517;-75
2023/06/14 09:08:05;;;;;;;3.47;0.90;;;20.30;61.10;;;;;;5032152;28;20037;-75
2023/06/14 09:10:36;;;;;;;1.85;0.90;;;20.30;61.20;;;;;;5032335;28;20519;-75
2023/06/14 09:13:03;;;;;;;3.45;0.98;;;20.30;61.10;;;;;;5032245;28;20037;-75
2023/06/14 09:15:29;;;;;;;1.73;0.90;;;20.40;61.20;;;;;;5031900;28;20099;-75
2023/06/14 09:17:55;;;;;;;3.22;1.00;;;20.40;61.20;;;;;;5031689;28;20045;-75
2023/06/14 09:20:23;;;;;;;2.83;1.10;;;20.40;61.10;;;;;;5017781;28;20164;-75
2023/06/14 09:22:49;;;;;;;3.60;0.98;;;20.40;60.80;;;;;;5035784;28;20047;-75
2023/06/14 09:25:15;;;;;;;1.92;0.90;;;20.40;60.80;;;;;;5015708;28;20053;-75
2023/06/14 09:27:42;;;;;;;2.55;1.13;;;20.50;60.80;;;;;;5032179;28;20045;-75
2023/06/14 09:30:10;;;;;;;1.85;1.00;;;20.50;60.80;;;;;;5032487;28;20446;-75
2023/06/14 09:32:40;;;;;;;2.00;1.10;;;20.50;60.60;;;;;;5032075;28;20095;-75
2023/06/14 09:35:09;;;;;;;2.47;1.00;;;20.60;60.30;;;;;;5032286;28;20410;-74
2023/06/14 09:37:37;;;;;;;1.75;0.95;;;20.60;60.00;;;;;;5031895;28;20041;-75
2023/06/14 09:40:03;;;;;;;1.88;0.80;;;20.60;59.80;;;;;;5032211;28;20049;-75
2023/06/14 09:42:29;;;;;;;4.93;1.38;;;20.70;60.00;;;;;;5015585;28;20463;-75
2023/06/14 09:44:56;;;;;;;2.47;1.10;;;20.70;59.90;;;;;;5031913;28;20041;-75
2023/06/14 09:47:23;;;;;;;2.95;0.80;;;20.70;59.60;;;;;;5015012;28;20040;-75
2023/06/14 09:49:50;;;;;;;1.40;0.75;;;20.70;59.60;;;;;;5031675;28;20076;-75
2023/06/14 09:52:18;;;;;;;1.35;0.80;;;20.70;59.70;;;;;;5032120;28;20033;-75
2023/06/14 09:54:46;;;;;;;3.05;0.63;;;20.80;59.40;;;;;;5031675;28;20045;-74
2023/06/14 09:57:13;;;;;;;1.67;0.60;;;20.80;59.00;;;;;;5031825;28;20584;-75
2023/06/14 09:59:43;;;;;;;2.35;0.77;;;20.80;58.30;;;;;;5031467;28;20522;-74
2023/06/14 10:02:28;;;;;;;4.32;1.15;;;20.80;57.50;;;;;;5031868;28;20364;-74
2023/06/14 10:05:08;;;;;;;1.50;0.53;;;20.80;56.60;;;;;;5031613;28;20064;-74
2023/06/14 10:07:55;;;;;;;1.70;0.60;;;20.90;56.60;;;;;;5031481;28;20034;-75
2023/06/14 10:10:21;;;;;;;2.45;0.65;;;20.90;55.70;;;;;;5014933;28;20033;-74
2023/06/14 10:12:47;;;;;;;2.80;0.57;;;21.00;55.90;;;;;;5015115;28;20497;-75
2023/06/14 10:15:52;;;;;;;1.05;0.50;;;21.00;56.00;;;;;;5015113;28;20080;-75
2023/06/14 10:18:58;;;;;;;1.52;0.55;;;21.10;55.40;;;;;;5031198;28;20123;-75
2023/06/14 10:21:46;;;;;;;1.13;0.60;;;21.10;56.10;;;;;;4958746;28;20046;-75
2023/06/14 10:24:15;;;;;;;1.52;0.55;;;21.10;55.40;;;;;;5034490;28;20190;-75
2023/06/14 10:26:52;;;;;;;1.38;0.60;;;21.10;55.80;;;;;;5018175;28;20124;-75
2023/06/14 10:29:17;;;;;;;1.10;0.60;;;21.20;55.40;;;;;;5017879;28;20045;-75
2023/06/14 10:31:48;;;;;;;1.15;0.40;;;21.20;55.40;;;;;;5033178;28;20170;-76
2023/06/14 10:34:26;;;;;;;0.98;0.45;;;21.20;55.20;;;;;;5034646;28;20126;-75
2023/06/14 10:37:14;;;;;;;2.17;0.60;;;21.20;54.60;;;;;;5017610;28;20037;-75
2023/06/14 10:39:45;;;;;;;1.17;0.40;;;21.30;55.00;;;;;;5034448;28;20040;-75
2023/06/14 10:42:12;;;;;;;1.92;0.60;;;21.30;55.00;;;;;;5034522;28;20049;-75
2023/06/14 10:44:37;;;;;;;1.05;0.57;;;21.40;54.70;;;;;;5033939;28;20067;-75
2023/06/14 10:47:10;;;;;;;1.17;0.55;;;21.40;54.00;;;;;;5017503;28;20137;-75
2023/06/14 10:49:41;;;;;;;1.08;0.50;;;21.40;53.30;;;;;;5017761;28;20037;-75
2023/06/14 10:52:11;;;;;;;1.05;0.50;;;21.40;53.30;;;;;;5034222;28;20489;-75
2023/06/14 10:54:38;;;;;;;1.05;0.63;;;21.40;53.10;;;;;;5034257;28;20618;-75
2023/06/14 10:57:07;;;;;;;2.25;0.52;;;21.40;53.10;;;;;;5017190;28;20503;-75
2023/06/14 10:59:33;;;;;;;1.30;0.60;;;21.40;52.90;;;;;;5033807;28;20478;-75
2023/06/14 11:02:36;;;;;;;1.00;0.60;;;21.40;53.30;;;;;;5017139;28;20076;-75
2023/06/14 11:05:05;;;;;;;1.38;0.75;;;21.50;52.80;;;;;;5016899;28;20072;-75
2023/06/14 11:07:42;;;;;;;1.95;0.60;;;21.50;53.40;;;;;;5033548;28;20037;-75
2023/06/14 11:10:20;;;;;;;1.83;0.80;;;21.50;52.90;;;;;;5016922;28;20123;-75
2023/06/14 11:12:48;;;;;;;1.58;0.73;;;21.60;52.70;;;;;;5033186;28;20071;-75
2023/06/14 11:15:13;;;;;;;2.20;0.50;;;21.60;52.90;;;;;;5017136;28;20041;-75
2023/06/14 11:17:49;;;;;;;1.77;0.40;;;21.60;52.40;;;;;;5033339;28;20037;-75
2023/06/14 11:20:16;;;;;;;2.30;0.68;;;21.60;52.60;;;;;;5033903;28;20051;-75
2023/06/14 11:22:45;;;;;;;1.52;0.65;;;21.60;52.70;;;;;;5033636;28;20052;-75
2023/06/14 11:25:14;;;;;;;1.50;0.60;;;21.60;52.70;;;;;;5016741;28;20522;-75
2023/06/14 11:27:44;;;;;;;1.25;0.70;;;21.60;52.60;;;;;;5033075;28;20048;-75
2023/06/14 11:30:11;;;;;;;2.55;0.60;;;21.60;52.30;;;;;;5033124;28;20037;-75
2023/06/14 11:32:37;;;;;;;1.55;0.60;;;21.70;52.20;;;;;;5033374;28;20049;-75
2023/06/14 11:35:04;;;;;;;1.38;0.70;;;21.70;52.20;;;;;;5033004;28;20040;-75
2023/06/14 11:37:33;;;;;;;2.92;0.65;;;21.70;52.20;;;;;;5033047;28;20095;-75
2023/06/14 11:39:59;;;;;;;4.72;0.90;;;21.70;52.30;;;;;;5033007;28;20048;-75
2023/06/14 11:42:28;;;;;;;1.10;0.40;;;21.80;52.20;;;;;;5032743;28;20119;-75
2023/06/14 11:44:54;;;;;;;3.38;0.75;;;21.80;52.00;;;;;;5033052;28;20059;-75
2023/06/14 11:47:20;;;;;;;1.77;0.68;;;21.80;51.80;;;;;;5032965;28;20086;-75
2023/06/14 11:49:47;;;;;;;0.88;0.65;;;21.80;51.80;;;;;;5032690;28;20434;-75
2023/06/14 11:52:13;;;;;;;1.00;0.55;;;21.80;51.90;;;;;;5050794;28;20117;-75
2023/06/14 11:54:40;;;;;;;1.63;0.68;;;21.90;51.90;;;;;;5032635;28;20628;-75
2023/06/14 11:57:10;;;;;;;1.50;0.68;;;21.90;52.00;;;;;;5032740;28;20049;-75
2023/06/14 11:59:40;;;;;;;1.52;0.70;;;21.90;51.90;;;;;;5032933;28;20048;-75
2023/06/14 12:02:06;;;;;;;1.33;0.55;;;22.00;52.10;;;;;;5032614;28;20083;-75
2023/06/14 12:04:32;;;;;;;2.10;0.77;;;22.00;52.10;;;;;;5016219;28;20499;-75
2023/06/14 12:07:15;;;;;;;1.77;0.68;;;22.10;51.80;;;;;;5032692;28;20128;-75
2023/06/14 12:09:43;;;;;;;1.13;0.60;;;22.10;51.50;;;;;;5016696;28;20041;-75
2023/06/14 12:12:10;;;;;;;2.10;0.80;;;22.10;51.70;;;;;;5016078;28;20078;-75
2023/06/14 12:14:36;;;;;;;1.05;0.63;;;22.20;51.60;;;;;;5032446;28;20584;-75
2023/06/14 12:17:08;;;;;;;1.83;0.68;;;22.20;51.30;;;;;;5032459;28;20045;-75
2023/06/14 12:19:42;;;;;;;3.25;0.80;;;22.20;51.30;;;;;;5032427;28;20402;-75
2023/06/14 12:22:10;;;;;;;1.27;0.70;;;22.20;51.40;;;;;;5032361;28;20045;-76
2023/06/14 12:24:36;;;;;;;1.73;0.80;;;22.20;51.50;;;;;;5032289;28;20815;-75
2023/06/14 12:27:04;;;;;;;1.60;0.70;;;22.30;51.40;;;;;;5032301;28;20120;-75
2023/06/14 12:29:33;;;;;;;1.40;0.65;;;22.30;51.20;;;;;;5032258;28;20037;-75
2023/06/14 12:31:59;;;;;;;2.35;0.63;;;22.30;51.10;;;;;;5015713;28;20090;-75
2023/06/14 12:34:27;;;;;;;3.85;0.80;;;22.30;51.00;;;;;;5015958;28;20048;-75
2023/06/14 12:36:53;;;;;;;1.38;0.70;;;22.20;51.20;;;;;;5032854;28;20045;-75
2023/06/14 12:39:20;;;;;;;1.58;0.80;;;22.20;51.10;;;;;;5032298;28;20033;-75
2023/06/14 12:41:46;;;;;;;1.10;0.60;;;22.30;51.20;;;;;;5032295;28;20052;-75
2023/06/14 12:44:13;;;;;;;2.90;0.55;;;22.30;51.20;;;;;;5032386;28;20037;-74
2023/06/14 12:46:39;;;;;;;1.27;0.70;;;22.40;51.10;;;;;;5032123;28;20086;-75
2023/06/14 12:49:07;;;;;;;2.03;0.80;;;22.50;51.30;;;;;;5015828;28;20124;-75
2023/06/14 12:51:33;;;;;;;1.33;0.73;;;22.50;51.30;;;;;;5032576;28;20128;-75